Main page
METAR-TAF:

METAR-TAF

Airports :

Earlton (Timiskaming Regional) Airport

Earlton, Ontario, Canada

latitude: 47-42N, longitude: 079-51W, elevation: 243 m

Current weather observation

The report was made 30 minutes ago, at 18:00 UTC
Wind 5 kt from the South, varying between South/Southeast and West
Temperature 22°C
Humidity 57%
Pressure 1028 hPa
Visibility: 14.5 km
Few clouds at a height of 5500 ft

METAR: CYXR 201800Z AUTO 19005KT 150V260 9SM FEW055 22/13 A3035 RMK SLP281 DENSITY ALT 1400FT

Time: 14:30 (18:30 UTC)

Forecast

The report was made 50 minutes ago, at 17:40 UTC
Forecast valid from 20 at 18 UTC to 20 at 24 UTC
Wind 3 kt from variable directions
Visibility: 10 km
Broken clouds at a height of 5000 ft

TAF: CYXR 201740Z 2018/2024 VRB03KT P6SM BKN050 RMK FCST BASED ON AUTO OBS. NXT FCST BY 211200Z

Weather observations and forecasts of more than 4000 airports (METAR and TAF reports).

The available stations are represented by yellow and red dots on the map.

Hover mouse over dot to see the name of the station.

Then click to see weather observations and forecasts.

To change the map : click on the green buttons with a black cross to zoom in, on the green button with a dash to zoom out, or on the green arrows for adjacent maps.


METAR-TAF: